Ibadan Airport

Airport
ICAO code: 
DNIB
IATA Code: 
IBA
Summary
ICAO Region: 
AFI
Territory: 
Location: 
Ibadan, Oyo State
Serving: 
Ibadan
Elevation: 
728 ft
Coordinates: 
Aerial View: 
7° 21' 34.992" N, 3° 58' 32.988" E
Metar
Observation
DNIB 281100Z 11005KT 9999 SCT013 33/23 Q1011
Station
Ibadan
Date/Time
2021-11-28 11:00:00
Wind direction
110°
Wind speed
05 kts
Lowest cloud amount
scattered clouds
Temperature
33°C
Dew point
23°C
Humidity
55%
QNH
1011 hPa
Weather condition
n/a

Ibadan Airport is an airport serving Ibadan, the capital of the Oyo State of Nigeria.

Climatology

Tropical savanna climate (Köppen climate classification Aw)

Runways

Designator Length Width Surface Rops
5/23 2400 45 ASP No/No
Airport map: 
Aerial View: 

SKYbrary Partners:

Safety knowledge contributed by: